Sunday, January 20, 2019, 2:00 AM EST
Back to Local

KPOU, Poughkeepsie Dutchess Cty

Location: Wappingers Falls, NY, United States Lat: 41.633
Local Time: 2:00 AM EST ( 7:00 GMT) Lon: -73.883
Time Zone: US/Eastern Elev: 167 ft

Show me the last for .
Show Decoded

2019-01-20 01:39 METAR KPOU 200639Z 01007KT 2SM UP FEW010 BKN019 OVC025 M08/M11 A2982 RMK AO2
                 UPB35SNE35 P0005 T10781111 =
2019-01-20 01:30 METAR KPOU 200630Z 35008KT 3SM -SN FEW009 BKN018 OVC026 M08/M11 A2983 RMK AO2
                 P0003 T10781111 =
2019-01-20 01:18 METAR KPOU 200618Z 33008KT 3SM -SN SCT018 OVC025 M08/M11 A2983 RMK AO2 P0002
                 T10781111 =
2019-01-20 01:03 METAR KPOU 200603Z 33005KT 1 1/2SM -SN BKN017 OVC029 M08/M11 A2984 RMK AO2 P0000
                 T10781106 =
2019-01-20 00:53 METAR KPOU 200553Z 34006KT 1/2SM SN VV010 M08/M11 A2985 RMK AO2 SLP105 P0010
                 60023 T10781106 11033 21078 58033 =
2019-01-20 00:42 METAR KPOU 200542Z 01008KT 1/2SM SN VV009 M08/M11 A2985 RMK AO2 PRESFR P0007
                 T10781106 =
2019-01-19 23:53 METAR KPOU 200453Z 34005KT 3/4SM -SN VV013 M07/M10 A2991 RMK AO2 SLP128 P0004
                 T10671100 400221067 =
2019-01-19 23:44 METAR KPOU 200444Z 35004KT 3/4SM -SN VV014 M07/M10 A2992 RMK AO2 P0003 T10671100
                 =
2019-01-19 23:25 METAR KPOU 200425Z 35006KT 1SM -SN VV016 M07/M10 A2993 RMK AO2 P0002 T10671100 =
2019-01-19 22:53 METAR KPOU 200353Z 01006KT 3/4SM -SN BKN010 OVC015 M06/M09 A2994 RMK AO2 SLP137
                 P0004 T10611094 =
2019-01-19 22:50 METAR KPOU 200350Z 36004KT 3/4SM -SN BKN010 OVC015 M06/M09 A2994 RMK AO2 PRESFR
                 P0004 =
2019-01-19 22:26 METAR KPOU 200326Z 34009KT 1/2SM SN VV009 M06/M09 A2997 RMK AO2 P0002 T10611089
                 =
2019-01-19 21:53 METAR KPOU 200253Z 35008KT 3/4SM -SN VV012 M05/M08 A2999 RMK AO2 SLP155 P0002
                 60005 T10501078 56043 =
2019-01-19 21:15 METAR KPOU 200215Z 01006KT 3/4SM -SN VV014 M04/M07 A3004 RMK AO2 P0001 T10441072
                 =
2019-01-19 21:07 METAR KPOU 200207Z 01005KT 1SM -SN VV015 M04/M07 A3004 RMK AO2 P0001 T10441072 =
2019-01-19 21:02 METAR KPOU 200202Z 36006KT 3/4SM -SN VV014 M04/M07 A3005 RMK AO2 P0000 T10441072
                 =
2019-01-19 20:53 METAR KPOU 200153Z 36005KT 3/4SM -SN VV015 M04/M07 A3005 RMK AO2 SLP176 P0002
                 T10441072 =
2019-01-19 19:53 METAR KPOU 200053Z 01008KT 1 1/4SM -SN OVC020 M04/M07 A3006 RMK AO2 SLP178 P0001
                 T10441072 =
2019-01-19 18:53 METAR KPOU 192353Z 35004KT 1 1/4SM -SN OVC022 M03/M07 A3012 RMK AO2 SNB22 SLP199
                 P0000 60000 T10331072 10022 21033 56016 =
2019-01-19 18:36 METAR KPOU 192336Z 36006KT 2 1/2SM -SN OVC028 M03/M08 A3012 RMK AO2 SNB22 P0000
                 T10281078 =
2019-01-19 17:53 METAR KPOU 192253Z 34007KT 7SM OVC034 M02/M08 A3013 RMK AO2 SLP202 T10171083 =
2019-01-19 16:53 METAR KPOU 192153Z 36006KT 10SM OVC038 M01/M08 A3012 RMK AO2 SLP200 T10061078 =
2019-01-19 15:53 METAR KPOU 192053Z 35003KT 10SM OVC042 00/M07 A3017 RMK AO2 SLP215 T00001072
                 56011 =
2019-01-19 14:53 METAR KPOU 191953Z 34005KT 10SM OVC042 00/M07 A3018 RMK AO2 SLP219 T00001072 =
2019-01-19 13:53 METAR KPOU 191853Z 07003KT 10SM OVC042 02/M08 A3017 RMK AO2 SLP215 T00171083 =
2019-01-19 12:53 METAR KPOU 191753Z 00000KT 10SM OVC039 02/M08 A3020 RMK AO2 SLP226 I6000
                 T00171083 10017 21061 58023 =
2019-01-19 11:53 METAR KPOU 191653Z 10004KT 10SM OVC044 02/M08 A3024 RMK AO2 SLP238 T00171078 =
2019-01-19 10:53 METAR KPOU 191553Z 02005KT 10SM OVC041 01/M08 A3028 RMK AO2 SLP251 T00111078 =
2019-01-19 09:53 METAR KPOU 191453Z 00000KT 10SM OVC044 M01/M04 A3027 RMK AO2 SLP248 I3000
                 T10061044 51017 =
2019-01-19 08:53 METAR KPOU 191353Z 00000KT 9SM BKN037 BKN047 OVC100 M03/M06 A3027 RMK AO2 SLP248
                 T10281056 =
2019-01-19 07:53 METAR KPOU 191253Z 00000KT 9SM FEW035 M06/M08 A3023 RMK AO2 SLP237 I1000
                 T10611083 =
2019-01-19 06:53 METAR KPOU 191153Z 00000KT 10SM CLR M06/M09 A3022 RMK AO2 SLP232 I1000 I6001
                 T10561089 11022 21056 50009 =
2019-01-19 05:53 METAR KPOU 191053Z 00000KT 9SM SCT032 M05/M07 A3022 RMK AO2 SLP233 I1000
                 T10501072 =
2019-01-19 04:53 METAR KPOU 190953Z 03003KT 10SM FEW048 M06/M08 A3019 RMK AO2 SLP222 T10561083 =
2019-01-19 03:53 METAR KPOU 190853Z 00000KT 10SM CLR M04/M07 A3019 RMK AO2 SLP222 I1001 I3001
                 T10441072 50010 =
2019-01-19 02:53 METAR KPOU 190753Z 00000KT 10SM CLR M03/M06 A3019 RMK AO2 SLP224 T10331061 =

Support USWX by starting your Amazon purchase here.